Terminal Aerodrome Forecast
Issued by NWS

Home | Current Version | Previous Version | Text Only | Print | Product List | Glossary On
Versions: 1 2 3 4 5 6 7 8 9 10 11 12 13
000
FTUS43 KMPX 020557
TAFRWF
TAF
KRWF 020557Z 0206/0306 30010KT P6SM SKC
     FM021500 28016G25KT P6SM SKC
     FM021900 28022G31KT P6SM SKC
     FM030300 28008KT P6SM BKN250=

USA.gov is the U.S. government's official web portal to all federal, state and local government web resources and services.